createdAt,value
2022-08-21T00:01:51.730Z,99.90
2022-08-21T00:04:22.439Z,99.90
2022-08-21T00:06:53.100Z,99.90
2022-08-21T00:09:21.357Z,99.90
2022-08-21T00:11:48.955Z,99.90
2022-08-21T00:14:17.101Z,99.90
2022-08-21T00:16:44.326Z,99.90
2022-08-21T00:19:11.503Z,99.90
2022-08-21T00:21:38.539Z,99.90
2022-08-21T00:24:06.359Z,99.90
2022-08-21T00:26:34.999Z,99.90
2022-08-21T00:29:04.544Z,99.90
2022-08-21T00:31:31.731Z,99.90
2022-08-21T00:34:00.990Z,99.90
2022-08-21T00:36:28.914Z,99.90
2022-08-21T00:38:56.384Z,99.90
2022-08-21T00:41:37.043Z,99.90
2022-08-21T00:44:08.417Z,99.90
2022-08-21T00:46:35.918Z,99.90
2022-08-21T00:49:03.543Z,99.90
2022-08-21T00:51:39.067Z,99.90
2022-08-21T00:54:15.485Z,99.90
2022-08-21T00:56:49.155Z,99.90
2022-08-21T00:59:19.752Z,99.90
2022-08-21T01:01:47.311Z,99.90
2022-08-21T01:04:14.562Z,99.90
2022-08-21T01:06:41.548Z,99.90
2022-08-21T01:09:08.583Z,99.90
2022-08-21T01:11:35.911Z,99.90
2022-08-21T01:14:03.441Z,99.90
2022-08-21T01:16:30.795Z,99.90
2022-08-21T01:18:57.896Z,99.90
2022-08-21T01:21:28.360Z,99.90
2022-08-21T01:23:57.194Z,99.90
2022-08-21T01:26:34.092Z,99.90
2022-08-21T01:29:26.396Z,99.90
2022-08-21T01:31:53.547Z,99.90
2022-08-21T01:34:20.938Z,99.90
2022-08-21T01:36:49.076Z,99.90
2022-08-21T01:39:16.343Z,99.90
2022-08-21T01:41:43.924Z,99.90
2022-08-21T01:44:10.979Z,99.90
2022-08-21T01:46:38.115Z,99.90
2022-08-21T01:49:05.931Z,99.90
2022-08-21T01:51:33.325Z,99.90
2022-08-21T01:54:00.353Z,99.90
2022-08-21T01:56:28.984Z,99.90
2022-08-21T01:58:56.211Z,99.90
2022-08-21T02:01:23.317Z,99.90
2022-08-21T02:03:50.346Z,99.90
2022-08-21T02:06:19.191Z,99.90
2022-08-21T02:08:47.515Z,99.90
2022-08-21T02:11:14.827Z,99.90
2022-08-21T02:13:41.946Z,99.90
2022-08-21T02:16:09.687Z,99.90
2022-08-21T02:18:37.418Z,99.90
2022-08-21T02:21:06.019Z,99.90
2022-08-21T02:23:33.715Z,99.90
2022-08-21T02:26:02.825Z,99.90
2022-08-21T02:28:31.277Z,99.90
2022-08-21T02:30:59.204Z,99.90
2022-08-21T02:33:27.107Z,99.90
2022-08-21T02:35:55.259Z,99.90
2022-08-21T02:38:27.248Z,99.90
2022-08-21T02:40:55.434Z,99.90
2022-08-21T02:43:25.199Z,99.90
2022-08-21T02:45:52.792Z,99.90
2022-08-21T02:48:24.499Z,99.90
2022-08-21T02:50:58.114Z,99.90
2022-08-21T02:53:25.579Z,99.90
2022-08-21T02:55:53.469Z,99.90
2022-08-21T02:58:27.688Z,99.90
2022-08-21T03:00:55.104Z,99.90
2022-08-21T03:03:22.392Z,99.90
2022-08-21T03:05:49.764Z,99.90
2022-08-21T03:08:17.231Z,99.90
2022-08-21T03:10:48.873Z,99.90
2022-08-21T03:13:16.746Z,99.90
2022-08-21T03:15:44.382Z,99.90
2022-08-21T03:18:12.769Z,99.90
2022-08-21T03:20:41.488Z,99.90
2022-08-21T03:23:13.388Z,99.90
2022-08-21T03:25:42.250Z,99.90
2022-08-21T03:28:16.699Z,99.90
2022-08-21T03:30:46.529Z,99.90
2022-08-21T03:33:15.492Z,99.90
2022-08-21T03:35:45.451Z,99.90
2022-08-21T03:38:14.118Z,99.90
2022-08-21T03:40:43.203Z,99.90
2022-08-21T03:43:10.694Z,99.90
2022-08-21T03:45:39.143Z,99.90
2022-08-21T03:48:09.027Z,99.90
2022-08-21T03:50:40.797Z,99.90
2022-08-21T03:53:17.075Z,99.90
2022-08-21T03:55:50.009Z,99.90
2022-08-21T03:58:18.989Z,99.90
2022-08-21T04:00:47.846Z,99.90
2022-08-21T04:03:14.919Z,99.90
2022-08-21T04:05:42.854Z,99.90
2022-08-21T04:08:09.860Z,99.90
2022-08-21T04:10:39.036Z,99.90
2022-08-21T04:13:07.270Z,99.90
2022-08-21T04:15:34.526Z,99.90
2022-08-21T04:18:01.504Z,99.90
2022-08-21T04:20:29.495Z,99.90
2022-08-21T04:22:57.527Z,99.90
2022-08-21T04:25:26.582Z,99.90
2022-08-21T04:27:54.005Z,99.90
2022-08-21T04:30:28.157Z,99.90
2022-08-21T04:32:56.935Z,99.90
2022-08-21T04:35:25.625Z,99.90
2022-08-21T04:37:52.791Z,99.90
2022-08-21T04:40:21.631Z,99.90
2022-08-21T04:42:51.630Z,99.90
2022-08-21T04:45:21.748Z,99.90
2022-08-21T04:47:53.118Z,99.90
2022-08-21T04:50:23.610Z,99.90
2022-08-21T04:52:50.674Z,99.90
2022-08-21T04:55:19.208Z,99.90
2022-08-21T04:57:49.096Z,99.90
2022-08-21T05:00:19.901Z,99.90
2022-08-21T05:02:48.825Z,99.90
2022-08-21T05:05:17.171Z,99.90
2022-08-21T05:07:45.691Z,99.90
2022-08-21T05:10:15.245Z,99.90
2022-08-21T05:12:46.195Z,99.90
2022-08-21T05:15:14.350Z,99.90
2022-08-21T05:17:42.565Z,99.90
2022-08-21T05:20:14.661Z,99.90
2022-08-21T05:22:41.729Z,99.90
2022-08-21T05:25:10.877Z,99.90
2022-08-21T05:27:39.758Z,99.90
2022-08-21T05:30:11.414Z,99.90
2022-08-21T05:32:38.428Z,99.90
2022-08-21T05:35:07.142Z,99.90
2022-08-21T05:37:35.026Z,99.90
2022-08-21T05:40:20.382Z,99.90
2022-08-21T05:42:56.009Z,99.90
2022-08-21T05:45:41.944Z,99.90
2022-08-21T05:48:23.032Z,99.90
2022-08-21T05:50:51.522Z,99.90
2022-08-21T05:53:24.590Z,99.90
2022-08-21T05:55:52.818Z,99.90
2022-08-21T05:58:22.953Z,99.90
2022-08-21T06:00:52.736Z,99.90
2022-08-21T06:03:26.878Z,99.90
2022-08-21T06:05:54.701Z,99.90
2022-08-21T06:08:23.716Z,99.90
2022-08-21T06:10:55.257Z,99.90
2022-08-21T06:13:23.539Z,99.90
2022-08-21T06:15:51.150Z,99.90
2022-08-21T06:18:18.567Z,99.90
2022-08-21T06:20:45.889Z,99.90
2022-08-21T06:23:13.990Z,99.90
2022-08-21T06:25:41.434Z,99.90
2022-08-21T06:28:11.119Z,99.90
2022-08-21T06:31:14.318Z,99.90
2022-08-21T06:33:52.547Z,99.90
2022-08-21T06:36:30.518Z,99.90
2022-08-21T06:39:00.095Z,99.20
2022-08-21T06:41:28.390Z,98.20
2022-08-21T06:44:02.817Z,97.70
2022-08-21T06:46:32.971Z,97.30
2022-08-21T06:49:00.168Z,96.40
2022-08-21T06:51:28.081Z,96.90
2022-08-21T06:53:55.703Z,96.90
2022-08-21T06:56:22.941Z,93.80
2022-08-21T06:58:50.647Z,91.00
2022-08-21T07:01:18.012Z,90.60
2022-08-21T07:03:45.711Z,91.40
2022-08-21T07:06:13.104Z,87.10
2022-08-21T07:08:40.282Z,90.30
2022-08-21T07:11:20.795Z,88.30
2022-08-21T07:13:48.326Z,87.70
2022-08-21T07:16:15.611Z,87.90
2022-08-21T07:18:42.900Z,89.00
2022-08-21T07:21:10.702Z,85.00
2022-08-21T07:23:49.857Z,83.50
2022-08-21T07:26:21.783Z,84.00
2022-08-21T07:28:49.811Z,81.10
2022-08-21T07:31:19.794Z,77.60
2022-08-21T07:33:46.956Z,80.90
2022-08-21T07:36:14.627Z,78.70
2022-08-21T07:38:41.715Z,76.40
2022-08-21T07:41:27.197Z,78.30
2022-08-21T07:43:54.435Z,75.70
2022-08-21T07:46:21.553Z,74.60
2022-08-21T07:48:48.885Z,73.30
2022-08-21T07:51:18.159Z,72.40
2022-08-21T07:53:53.019Z,69.60
2022-08-21T07:56:20.374Z,72.00
2022-08-21T07:58:48.239Z,72.30
2022-08-21T08:01:15.541Z,73.10
2022-08-21T08:03:42.655Z,75.40
2022-08-21T08:06:13.340Z,71.30
2022-08-21T08:08:41.943Z,73.60
2022-08-21T08:11:16.144Z,71.30
2022-08-21T08:13:45.271Z,65.90
2022-08-21T08:16:12.309Z,68.10
2022-08-21T08:18:39.812Z,67.30
2022-08-21T08:21:08.844Z,67.90
2022-08-21T08:23:36.027Z,69.80
2022-08-21T08:26:06.763Z,66.20
2022-08-21T08:28:34.727Z,66.90
2022-08-21T08:31:02.424Z,64.10
2022-08-21T08:33:29.667Z,64.50
2022-08-21T08:35:57.580Z,65.50
2022-08-21T08:38:26.284Z,64.80
2022-08-21T08:41:16.855Z,65.40
2022-08-21T08:43:52.019Z,63.80
2022-08-21T08:46:25.414Z,62.50
2022-08-21T08:49:04.580Z,62.40
2022-08-21T08:51:53.128Z,62.20
2022-08-21T08:54:35.957Z,62.50
2022-08-21T08:57:08.898Z,61.70
2022-08-21T08:59:45.501Z,58.40
2022-08-21T09:02:14.928Z,61.00
2022-08-21T09:04:43.529Z,57.40
2022-08-21T09:07:46.408Z,59.20
2022-08-21T09:10:31.492Z,62.40
2022-08-21T09:13:05.125Z,58.70
2022-08-21T09:15:46.616Z,58.80
2022-08-21T09:19:08.477Z,57.70
2022-08-21T09:21:45.981Z,58.50
2022-08-21T09:24:33.211Z,57.60
2022-08-21T09:27:11.832Z,57.70
2022-08-21T09:29:45.232Z,59.20
2022-08-21T09:32:19.653Z,57.10
2022-08-21T09:35:18.138Z,55.90
2022-08-21T09:38:08.530Z,57.60
2022-08-21T09:40:45.466Z,56.10
2022-08-21T09:43:12.398Z,54.70
2022-08-21T09:45:42.951Z,56.50
2022-08-21T09:48:33.278Z,56.90
2022-08-21T09:51:10.159Z,55.70
2022-08-21T09:53:44.082Z,57.50
2022-08-21T09:56:48.608Z,59.10
2022-08-21T09:59:25.887Z,57.80
2022-08-21T10:01:54.458Z,57.60
2022-08-21T10:04:30.799Z,56.90
2022-08-21T10:07:12.357Z,58.00
2022-08-21T10:10:22.708Z,58.30
2022-08-21T10:13:01.742Z,57.60
2022-08-21T10:15:57.695Z,56.60
2022-08-21T10:18:40.613Z,55.90
2022-08-21T10:21:45.256Z,55.30
2022-08-21T10:24:34.575Z,57.70
2022-08-21T10:27:26.723Z,56.10
2022-08-21T10:29:57.780Z,58.60
2022-08-21T10:33:07.783Z,59.00
2022-08-21T10:35:42.615Z,59.40
2022-08-21T10:38:58.608Z,59.20
2022-08-21T10:42:04.967Z,60.00
2022-08-21T10:44:40.364Z,59.40
2022-08-21T10:47:20.751Z,59.20
2022-08-21T10:50:13.839Z,59.60
2022-08-21T10:53:13.773Z,59.00
2022-08-21T10:56:03.154Z,58.80
2022-08-21T10:58:39.754Z,59.70
2022-08-21T11:01:17.069Z,57.30
2022-08-21T11:03:51.928Z,58.90
2022-08-21T11:06:30.901Z,57.90
2022-08-21T11:09:25.968Z,54.40
2022-08-21T11:12:11.377Z,53.70
2022-08-21T11:14:54.472Z,55.50
2022-08-21T11:17:33.526Z,53.80
2022-08-21T11:20:11.516Z,54.50
2022-08-21T11:22:50.209Z,55.80
2022-08-21T11:25:37.108Z,59.10
2022-08-21T11:28:18.494Z,61.20
2022-08-21T11:31:08.388Z,62.20
2022-08-21T11:33:46.667Z,60.90
2022-08-21T11:36:55.455Z,58.50
2022-08-21T11:39:54.840Z,58.20
2022-08-21T11:42:29.875Z,57.20
2022-08-21T11:45:08.902Z,56.30
2022-08-21T11:47:49.946Z,58.70
2022-08-21T11:50:34.528Z,57.40
2022-08-21T11:53:26.072Z,55.70
2022-08-21T11:56:16.405Z,56.40
2022-08-21T11:58:47.655Z,56.40
2022-08-21T12:01:20.934Z,58.40
2022-08-21T12:03:57.390Z,58.70
2022-08-21T12:06:37.652Z,56.80
2022-08-21T12:09:08.476Z,58.50
2022-08-21T12:11:50.335Z,58.10
2022-08-21T12:14:20.391Z,59.70
2022-08-21T12:16:50.207Z,59.70
2022-08-21T12:19:26.334Z,57.00
2022-08-21T12:21:55.830Z,56.60
2022-08-21T12:24:28.690Z,55.80
2022-08-21T12:27:02.166Z,57.00
2022-08-21T12:29:32.787Z,54.80
2022-08-21T12:32:40.527Z,54.10
2022-08-21T12:35:28.752Z,55.40
2022-08-21T12:38:19.731Z,55.90
2022-08-21T12:41:07.008Z,56.70
2022-08-21T12:43:44.279Z,57.90
2022-08-21T12:46:28.935Z,57.10
2022-08-21T12:49:01.088Z,58.00
2022-08-21T12:51:37.535Z,58.10
2022-08-21T12:54:04.791Z,56.40
2022-08-21T12:56:37.232Z,56.60
2022-08-21T12:59:06.263Z,57.70
2022-08-21T13:01:41.403Z,57.80
2022-08-21T13:04:13.284Z,59.90
2022-08-21T13:06:46.832Z,56.00
2022-08-21T13:09:17.664Z,57.50
2022-08-21T13:11:47.832Z,56.90
2022-08-21T13:14:47.480Z,58.70
2022-08-21T13:17:23.609Z,61.10
2022-08-21T13:20:03.014Z,60.40
2022-08-21T13:22:34.891Z,59.00
2022-08-21T13:25:06.531Z,57.10
2022-08-21T13:27:35.272Z,54.30
2022-08-21T13:30:06.412Z,50.10
2022-08-21T13:32:37.104Z,47.60
2022-08-21T13:35:18.563Z,51.50
2022-08-21T13:37:48.465Z,50.80
2022-08-21T13:40:46.999Z,50.60
2022-08-21T13:43:21.124Z,50.40
2022-08-21T13:46:03.225Z,52.20
2022-08-21T13:48:38.668Z,51.20
2022-08-21T13:51:06.472Z,50.50
2022-08-21T13:53:53.425Z,48.10
2022-08-21T13:56:33.879Z,48.70
2022-08-21T13:59:02.895Z,49.40
2022-08-21T14:01:37.691Z,50.60
2022-08-21T14:04:13.431Z,51.00
2022-08-21T14:06:40.472Z,51.60
2022-08-21T14:09:14.198Z,51.30
2022-08-21T14:11:41.435Z,53.70
2022-08-21T14:14:34.965Z,54.60
2022-08-21T14:17:24.268Z,55.80
2022-08-21T14:19:52.161Z,53.70
2022-08-21T14:22:39.672Z,53.90
2022-08-21T14:25:17.160Z,54.50
2022-08-21T14:27:57.964Z,56.20
2022-08-21T14:30:40.414Z,56.30
2022-08-21T14:33:13.901Z,56.50
2022-08-21T14:35:41.566Z,56.90
2022-08-21T14:38:20.883Z,57.40
2022-08-21T14:40:51.336Z,56.80
2022-08-21T14:43:20.196Z,55.70
2022-08-21T14:45:50.604Z,54.10
2022-08-21T14:48:20.245Z,52.70
2022-08-21T14:50:48.423Z,50.40
2022-08-21T14:53:15.646Z,49.60
2022-08-21T14:56:01.063Z,49.50
2022-08-21T14:58:28.187Z,48.60
2022-08-21T15:00:57.522Z,49.00
2022-08-21T15:03:27.393Z,49.10
2022-08-21T15:05:54.506Z,44.70
2022-08-21T15:08:21.612Z,46.40
2022-08-21T15:11:10.668Z,46.50
2022-08-21T15:13:37.283Z,46.60
2022-08-21T15:16:04.509Z,47.40
2022-08-21T15:18:32.154Z,47.90
2022-08-21T15:20:59.220Z,48.60
2022-08-21T15:23:26.512Z,46.90
2022-08-21T15:25:54.414Z,45.20
2022-08-21T15:28:22.246Z,45.60
2022-08-21T15:30:52.018Z,47.30
2022-08-21T15:33:20.010Z,47.00
2022-08-21T15:35:47.319Z,46.60
2022-08-21T15:38:15.926Z,45.80
2022-08-21T15:40:51.584Z,47.00
2022-08-21T15:43:31.923Z,46.40
2022-08-21T15:46:02.873Z,46.70
2022-08-21T15:48:30.250Z,46.40
2022-08-21T15:50:58.107Z,47.50
2022-08-21T15:53:25.168Z,46.40
2022-08-21T15:55:52.214Z,46.80
2022-08-21T15:58:25.247Z,45.00
2022-08-21T16:00:52.760Z,45.80
2022-08-21T16:03:22.711Z,46.60
2022-08-21T16:05:53.237Z,44.70
2022-08-21T16:08:24.014Z,45.50
2022-08-21T16:10:52.027Z,45.10
2022-08-21T16:16:13.483Z,46.30
2022-08-21T16:18:41.074Z,47.30
2022-08-21T16:21:08.174Z,47.20
2022-08-21T16:23:36.209Z,46.50
2022-08-21T16:26:04.058Z,46.30
2022-08-21T16:28:32.495Z,47.20
2022-08-21T16:30:59.560Z,46.40
2022-08-21T16:33:26.660Z,47.20
2022-08-21T16:35:53.918Z,47.70
2022-08-21T16:38:21.323Z,47.70
2022-08-21T16:40:49.474Z,48.10
2022-08-21T16:43:25.160Z,48.20
2022-08-21T16:45:53.743Z,48.00
2022-08-21T16:48:21.060Z,47.90
2022-08-21T16:50:51.078Z,48.10
2022-08-21T16:53:21.450Z,48.70
2022-08-21T16:55:48.987Z,48.90
2022-08-21T16:58:43.134Z,49.00
2022-08-21T17:01:13.143Z,51.00
2022-08-21T17:03:45.848Z,52.40
2022-08-21T17:06:15.132Z,54.10
2022-08-21T17:08:42.170Z,55.70
2022-08-21T17:11:38.121Z,56.60
2022-08-21T17:14:13.933Z,56.60
2022-08-21T17:16:46.626Z,57.50
2022-08-21T17:19:17.604Z,59.70
2022-08-21T17:22:04.115Z,59.80
2022-08-21T17:24:31.256Z,61.00
2022-08-21T17:26:59.642Z,61.90
2022-08-21T17:29:31.660Z,62.50
2022-08-21T17:31:58.791Z,63.20
2022-08-21T17:34:30.121Z,63.90
2022-08-21T17:37:01.387Z,65.00
2022-08-21T17:39:28.483Z,66.50
2022-08-21T17:41:58.397Z,67.20
2022-08-21T17:44:26.176Z,68.10
2022-08-21T17:46:53.763Z,68.30
2022-08-21T17:49:20.833Z,68.20
2022-08-21T17:51:48.154Z,69.30
2022-08-21T17:54:15.175Z,71.30
2022-08-21T17:56:43.013Z,71.90
2022-08-21T17:59:11.450Z,72.50
2022-08-21T18:01:42.754Z,73.90
2022-08-21T18:04:11.046Z,75.90
2022-08-21T18:06:38.255Z,77.10
2022-08-21T18:09:05.991Z,78.10
2022-08-21T18:11:33.717Z,80.10
2022-08-21T18:14:07.374Z,80.90
2022-08-21T18:16:37.808Z,83.50
2022-08-21T18:19:10.759Z,85.10
2022-08-21T18:21:37.886Z,85.40
2022-08-21T18:24:05.351Z,86.50
2022-08-21T18:26:35.663Z,87.70
2022-08-21T18:29:05.244Z,88.40
2022-08-21T18:31:35.187Z,90.60
2022-08-21T18:34:09.042Z,91.70
2022-08-21T18:36:36.050Z,92.40
2022-08-21T18:39:25.673Z,93.40
2022-08-21T18:41:51.587Z,94.10
2022-08-21T18:44:20.747Z,94.30
2022-08-21T18:47:18.723Z,93.40
2022-08-21T18:49:45.695Z,93.70
2022-08-21T18:52:20.311Z,94.10
2022-08-21T18:54:49.811Z,94.20
2022-08-21T18:57:19.133Z,94.30
2022-08-21T18:59:48.624Z,94.40
2022-08-21T19:02:16.288Z,95.50
2022-08-21T19:04:44.986Z,96.10
2022-08-21T19:07:14.116Z,96.80
2022-08-21T19:09:43.003Z,97.50
2022-08-21T19:12:16.299Z,98.20
2022-08-21T19:14:44.229Z,98.20
2022-08-21T19:17:13.832Z,98.90
2022-08-21T19:19:47.180Z,99.90
2022-08-21T19:22:23.554Z,99.90
2022-08-21T19:24:54.205Z,99.90
2022-08-21T19:27:21.397Z,99.90
2022-08-21T19:29:53.147Z,99.90
2022-08-21T19:32:20.402Z,99.90
2022-08-21T19:34:50.075Z,99.90
2022-08-21T19:37:22.487Z,99.90
2022-08-21T19:39:50.548Z,99.90
2022-08-21T19:42:21.630Z,99.90
2022-08-21T19:47:40.541Z,99.90
2022-08-21T19:50:17.654Z,99.90
2022-08-21T19:52:51.360Z,99.90
2022-08-21T19:55:25.768Z,99.90
2022-08-21T19:57:54.771Z,99.90
2022-08-21T20:00:22.504Z,99.90
2022-08-21T20:02:51.388Z,99.90
2022-08-21T20:05:18.623Z,99.90
2022-08-21T20:07:48.494Z,99.90
2022-08-21T20:10:15.790Z,99.90
2022-08-21T20:12:45.067Z,99.90
2022-08-21T20:15:12.207Z,99.90
2022-08-21T20:17:43.108Z,99.90
2022-08-21T20:20:10.315Z,99.90
2022-08-21T20:22:40.099Z,99.90
2022-08-21T20:25:08.203Z,99.90
2022-08-21T20:27:40.346Z,99.90
2022-08-21T20:30:08.759Z,99.90
2022-08-21T20:32:36.283Z,99.90
2022-08-21T20:35:04.571Z,99.90
2022-08-21T20:37:36.196Z,99.90
2022-08-21T20:42:57.975Z,99.90
2022-08-21T20:45:28.888Z,99.90
2022-08-21T20:48:12.323Z,99.90
2022-08-21T20:50:52.276Z,99.90
2022-08-21T20:53:55.174Z,99.90
2022-08-21T20:56:54.169Z,99.90
2022-08-21T20:59:33.362Z,99.90
2022-08-21T21:02:44.868Z,99.90
2022-08-21T21:05:20.775Z,99.90
2022-08-21T21:07:52.734Z,99.90
2022-08-21T21:10:44.849Z,99.90
2022-08-21T21:13:53.461Z,99.90
2022-08-21T21:16:31.717Z,99.90
2022-08-21T21:19:03.647Z,99.90
2022-08-21T21:21:51.608Z,99.90
2022-08-21T21:24:38.247Z,99.90
2022-08-21T21:27:19.852Z,99.90
2022-08-21T21:30:12.001Z,99.90
2022-08-21T21:32:39.541Z,99.90
2022-08-21T21:35:07.975Z,99.90
2022-08-21T21:37:47.002Z,99.90
2022-08-21T21:40:44.568Z,99.90
2022-08-21T21:43:24.172Z,99.90
2022-08-21T21:46:19.113Z,99.90
2022-08-21T21:48:52.639Z,99.90
2022-08-21T21:51:20.498Z,99.90
2022-08-21T21:54:13.255Z,99.90
2022-08-21T21:56:56.028Z,99.90
2022-08-21T21:59:54.371Z,99.90
2022-08-21T22:02:39.562Z,99.90
2022-08-21T22:05:27.327Z,99.90
2022-08-21T22:08:30.020Z,99.90
2022-08-21T22:10:59.461Z,99.90
2022-08-21T22:13:45.716Z,99.90
2022-08-21T22:16:16.488Z,99.90
2022-08-21T22:18:59.070Z,99.90
2022-08-21T22:21:36.294Z,99.90
2022-08-21T22:24:16.891Z,99.90
2022-08-21T22:26:55.262Z,99.90
2022-08-21T22:29:23.515Z,99.90
2022-08-21T22:32:08.810Z,99.90
2022-08-21T22:34:37.010Z,99.90
2022-08-21T22:37:08.887Z,99.90
2022-08-21T22:39:38.751Z,99.90
2022-08-21T22:42:23.887Z,99.90
2022-08-21T22:44:51.891Z,99.90
2022-08-21T22:47:44.571Z,99.90
2022-08-21T22:50:32.682Z,99.90
2022-08-21T22:53:03.754Z,99.90
2022-08-21T22:58:40.935Z,99.90
2022-08-21T23:01:22.887Z,99.90
2022-08-21T23:03:57.420Z,99.90
2022-08-21T23:06:33.182Z,99.90
2022-08-21T23:09:00.874Z,99.90
2022-08-21T23:14:28.707Z,99.90
2022-08-21T23:17:18.443Z,99.90
2022-08-21T23:19:57.843Z,99.90
2022-08-21T23:22:55.062Z,99.90
2022-08-21T23:25:37.406Z,99.90
2022-08-21T23:28:16.923Z,99.90
2022-08-21T23:31:01.112Z,99.90
2022-08-21T23:33:46.632Z,99.90
2022-08-21T23:37:18.511Z,99.90
2022-08-21T23:40:02.815Z,99.90
2022-08-21T23:42:51.780Z,99.90
2022-08-21T23:45:32.902Z,99.90
2022-08-21T23:51:33.891Z,99.90
2022-08-21T23:54:27.094Z,99.90
2022-08-21T23:57:08.031Z,99.90
2022-08-21T23:59:58.287Z,99.90
